Wenonah, NJ (08090)

9:39 PM EDT on May 06, 2015 (GMT -0400)
DV Floral Group | | Change Station
CLOSE
Current Station
Personal Weather Station
Location: Sewell, NJ
Elevation: 49 ft
Nearby Weather Stations

Elev 49 ft 39.78 °N, 75.16 °W | Updated 8 seconds ago

Mostly Cloudy
Mostly Cloudy
63.2 °F
Feels Like 63.2 °F
N
1.0
Wind Variable Wind from East
Gusts 4.0 mph

Today
High -- | Low -- °F
--% Chance of Precip.
Yesterday
High -- | Low -- °F
Precip. -- in
5:55 AM 7:59 PM
Waning Gibbous, 91% visible
Pressure 30.23 in
Visibility 10.0 miles
Clouds Mostly Cloudy 9000 ft
Mostly Cloudy 14000 ft
Dew Point 52 °F
Humidity 68%
Rainfall 0.04 in
Snow Depth Not available.
UV 0 out of 12
Pollen 7.70 out of 12
Air Quality Not available.
Flu Activity Local Activity
METAR KPHL 070054Z 09007KT 10SM BKN090 BKN140 18/10 A3023 RMK AO2 SLP235 T01830100

More Conditions Fewer Conditions

Pressure 30.23 in
Visibility 10.0 miles
Clouds Mostly Cloudy 9000 ft
Mostly Cloudy 14000 ft
Dew Point 52 °F
Humidity 68%
Rainfall 0.04 in
Snow Depth Not available.
UV 0 out of 12
Pollen 7.70 out of 12
Air Quality Not available.
Flu Activity Local Activity
METAR KPHL 070054Z 09007KT 10SM BKN090 BKN140 18/10 A3023 RMK AO2 SLP235 T01830100

More Conditions Fewer Conditions

Nowcast | as of 7:50 PM EDT on May 6, 2015

Between now and 1000 PM, isolated light rain showers will affect parts of southern New Jersey and the adjacent waters. Additional rainfall should be a few hundredths of an inch.

×

10-Day Weather Forecast

Almanac

Astronomy

May. 06, 2015 Rise Set
Actual Time
Civil Twilight
Nautical Twilight
Astronomical Twilight
Moon
Length of Visible Light
Length of Day
Tomorrow will be .
, % of the Moon is Illuminated

Today's Extremes

State Highs State Lows

Community

WunderPhotos

Upload Photos

1,819,068 photos uploaded!

WunderBlogs® & News

Nearby

Air Quality

  Air Quality AQ Index Pollutant
Not available.

Snow Depth

Station Depth Elevation

Earthquake Activity

City Distance Mag. Time & Date
Minimum magnitude displayed is 2.5.

Coastal Water Temperatures

Place Temperature

Stations

Nearby Weather Stations

Station Location Temp. Windchill Dew Point Humidity Wind Precip. Elev Updated Type